createdAt,value
2023-04-18T05:03:20.231Z,25.00
2023-04-18T05:04:21.187Z,25.00
2023-04-18T05:05:21.096Z,25.00
2023-04-18T05:06:20.138Z,25.00
2023-04-18T05:07:21.116Z,25.00
2023-04-18T05:08:20.165Z,25.00
2023-04-18T05:09:20.224Z,0.00
2023-04-18T05:10:21.260Z,0.00
2023-04-18T05:11:20.261Z,0.00
2023-04-18T05:12:21.249Z,0.00
2023-04-18T05:13:21.255Z,0.00
2023-04-18T05:14:20.245Z,0.00
2023-04-18T05:15:21.284Z,0.00
2023-04-18T05:16:20.264Z,0.00
2023-04-18T05:17:21.280Z,0.00
2023-04-18T05:18:20.345Z,0.00
2023-04-18T05:19:21.363Z,0.00
2023-04-18T05:20:21.388Z,0.00
2023-04-18T05:21:20.439Z,0.00
2023-04-18T05:22:20.500Z,0.00
2023-04-18T05:23:21.511Z,0.00
2023-04-18T05:24:21.524Z,0.00
2023-04-18T05:25:20.532Z,0.00
2023-04-18T05:26:21.566Z,4.23
2023-04-18T05:27:20.652Z,25.00
2023-04-18T05:28:21.644Z,26.89
2023-04-18T05:29:21.655Z,25.00
2023-04-18T05:30:20.677Z,25.67
2023-04-18T05:31:20.791Z,25.54
2023-04-18T05:32:21.678Z,25.44
2023-04-18T05:33:21.679Z,28.06
2023-04-18T05:34:21.690Z,30.20
2023-04-18T05:35:20.775Z,28.67
2023-04-18T05:36:21.809Z,28.26
2023-04-18T05:37:21.854Z,30.29
2023-04-18T05:38:20.870Z,28.07
2023-04-18T05:39:21.922Z,32.25
2023-04-18T05:40:21.994Z,33.22
2023-04-18T05:41:21.973Z,37.23
2023-04-18T05:42:21.976Z,37.73
2023-04-18T05:43:21.989Z,39.31
2023-04-18T05:44:21.381Z,40.46
2023-04-18T05:45:21.135Z,41.56
2023-04-18T05:46:22.073Z,38.91
2023-04-18T05:47:21.157Z,42.27
2023-04-18T05:48:21.034Z,44.05
2023-04-18T05:49:22.036Z,41.89
2023-04-18T05:50:22.072Z,50.05
2023-04-18T05:51:22.127Z,50.88
2023-04-18T05:52:22.132Z,55.18
2023-04-18T05:53:22.183Z,57.76
2023-04-18T05:54:22.252Z,57.54
2023-04-18T05:55:21.306Z,57.19
2023-04-18T05:56:22.334Z,59.31
2023-04-18T05:57:22.408Z,60.33
2023-04-18T05:58:22.420Z,63.11
2023-04-18T05:59:22.493Z,63.58
2023-04-18T06:00:22.670Z,65.77
2023-04-18T06:01:22.575Z,64.26
2023-04-18T06:02:22.271Z,59.35
2023-04-18T06:03:22.933Z,23.16
2023-04-18T06:04:22.834Z,23.03
2023-04-18T06:05:24.724Z,28.63
2023-04-18T06:06:22.693Z,24.89
2023-04-18T06:07:22.780Z,23.58
2023-04-18T06:08:21.839Z,23.10
2023-04-18T06:09:22.688Z,78.50
2023-04-18T06:10:21.665Z,55.36
2023-04-18T06:11:21.920Z,62.88
2023-04-18T06:12:22.646Z,60.58
2023-04-18T06:13:21.650Z,61.52
2023-04-18T06:14:22.635Z,64.63
2023-04-18T06:15:21.644Z,66.11
2023-04-18T06:16:21.669Z,69.79
2023-04-18T06:17:21.674Z,75.73
2023-04-18T06:18:22.619Z,80.93
2023-04-18T06:19:21.598Z,78.65
2023-04-18T06:20:22.642Z,81.50
2023-04-18T06:21:22.585Z,80.52
2023-04-18T06:22:22.582Z,84.95
2023-04-18T06:23:22.593Z,84.10
2023-04-18T06:24:21.555Z,84.12
2023-04-18T06:25:22.574Z,84.74
2023-04-18T06:26:22.540Z,83.37
2023-04-18T06:27:31.021Z,86.18
2023-04-18T06:28:22.537Z,86.53
2023-04-18T06:29:22.525Z,87.11
2023-04-18T06:30:21.544Z,87.79
2023-04-18T06:31:22.522Z,87.56
2023-04-18T06:32:22.554Z,88.32
2023-04-18T06:33:22.518Z,89.75
2023-04-18T06:34:22.494Z,90.97
2023-04-18T06:35:21.521Z,90.63
2023-04-18T06:36:21.482Z,93.79
2023-04-18T06:37:22.477Z,94.67
2023-04-18T06:38:22.476Z,93.81
2023-04-18T06:39:22.487Z,92.02
2023-04-18T06:40:21.472Z,99.88
2023-04-18T06:41:22.472Z,100.17
2023-04-18T06:42:22.951Z,98.06
2023-04-18T06:43:22.439Z,100.06
2023-04-18T06:44:22.428Z,101.87
2023-04-18T06:45:22.427Z,100.13
2023-04-18T06:46:22.523Z,100.72
2023-04-18T06:47:22.435Z,101.98
2023-04-18T06:48:22.410Z,98.38
2023-04-18T06:49:26.438Z,98.49
2023-04-18T06:50:21.397Z,98.84
2023-04-18T06:51:22.381Z,99.27
2023-04-18T06:52:22.371Z,100.22
2023-04-18T06:53:22.380Z,100.82
2023-04-18T06:54:22.395Z,106.28
2023-04-18T06:55:21.485Z,112.06
2023-04-18T06:56:21.522Z,113.39
2023-04-18T06:57:21.579Z,118.11
2023-04-18T06:58:21.613Z,119.24
2023-04-18T06:59:21.697Z,112.71
2023-04-18T07:00:21.754Z,128.29
2023-04-18T07:01:21.793Z,127.65
2023-04-18T07:02:22.924Z,123.04
2023-04-18T07:03:23.075Z,123.37
2023-04-18T07:04:23.082Z,119.10
2023-04-18T07:05:22.973Z,119.70
2023-04-18T07:06:23.023Z,118.35
2023-04-18T07:07:22.079Z,113.27
2023-04-18T07:08:22.153Z,115.04
2023-04-18T07:09:23.209Z,117.27
2023-04-18T07:10:22.277Z,115.21
2023-04-18T07:11:22.449Z,115.18
2023-04-18T07:12:23.541Z,114.63
2023-04-18T07:13:23.525Z,112.58
2023-04-18T07:14:23.480Z,115.36
2023-04-18T07:15:22.529Z,114.84
2023-04-18T07:16:23.680Z,115.45
2023-04-18T07:17:22.680Z,119.50
2023-04-18T07:18:36.778Z,115.68
2023-04-18T07:19:23.684Z,116.10
2023-04-18T07:20:22.679Z,116.88
2023-04-18T07:21:23.672Z,116.72
2023-04-18T07:22:22.670Z,118.17
2023-04-18T07:23:22.682Z,118.32
2023-04-18T07:24:22.652Z,119.76
2023-04-18T07:25:23.633Z,116.78
2023-04-18T07:26:23.637Z,117.39
2023-04-18T07:27:23.651Z,112.79
2023-04-18T07:28:22.615Z,118.66
2023-04-18T07:29:23.651Z,119.32
2023-04-18T07:30:23.619Z,122.50
2023-04-18T07:31:23.642Z,123.26
2023-04-18T07:32:23.613Z,123.84
2023-04-18T07:33:23.574Z,125.71
2023-04-18T07:34:23.582Z,124.63
2023-04-18T07:35:23.591Z,123.21
2023-04-18T07:36:23.602Z,123.94
2023-04-18T07:37:23.617Z,124.16
2023-04-18T07:38:23.556Z,121.96
2023-04-18T07:39:23.538Z,120.94
2023-04-18T07:40:23.547Z,121.45
2023-04-18T07:41:23.546Z,122.02
2023-04-18T07:42:23.537Z,123.90
2023-04-18T07:43:22.549Z,125.13
2023-04-18T07:44:23.518Z,128.77
2023-04-18T07:45:23.586Z,130.95
2023-04-18T07:46:23.593Z,132.38
2023-04-18T07:47:22.728Z,130.70
2023-04-18T07:48:23.509Z,137.68
2023-04-18T07:49:23.484Z,139.56
2023-04-18T07:50:23.532Z,143.08
2023-04-18T07:51:23.698Z,145.88
2023-04-18T07:52:23.555Z,148.12
2023-04-18T07:53:23.594Z,149.10
2023-04-18T07:54:23.584Z,152.58
2023-04-18T07:55:23.599Z,157.97
2023-04-18T07:56:23.631Z,160.19
2023-04-18T07:57:23.626Z,160.64
2023-04-18T07:58:23.617Z,163.09
2023-04-18T07:59:23.808Z,163.59
2023-04-18T08:00:22.648Z,164.20
2023-04-18T08:01:23.640Z,167.39
2023-04-18T08:02:22.792Z,169.93
2023-04-18T08:03:23.819Z,169.81
2023-04-18T08:04:23.774Z,169.63
2023-04-18T08:05:23.754Z,172.26
2023-04-18T08:06:23.662Z,174.37
2023-04-18T08:07:23.681Z,173.72
2023-04-18T08:08:22.726Z,174.02
2023-04-18T08:09:22.722Z,172.72
2023-04-18T08:10:23.958Z,177.64
2023-04-18T08:11:23.764Z,178.21
2023-04-18T08:12:23.779Z,180.87
2023-04-18T08:13:23.837Z,177.18
2023-04-18T08:14:23.812Z,176.48
2023-04-18T08:15:23.820Z,175.72
2023-04-18T08:16:23.842Z,178.62
2023-04-18T08:17:22.849Z,179.47
2023-04-18T08:18:23.806Z,179.62
2023-04-18T08:19:22.839Z,178.67
2023-04-18T08:20:23.901Z,179.49
2023-04-18T08:21:22.956Z,179.78
2023-04-18T08:22:23.905Z,180.35
2023-04-18T08:23:22.915Z,179.84
2023-04-18T08:24:23.921Z,180.33
2023-04-18T08:25:22.961Z,181.06
2023-04-18T08:26:22.931Z,178.83
2023-04-18T08:27:22.918Z,177.99
2023-04-18T08:28:23.914Z,177.33
2023-04-18T08:29:22.918Z,174.42
2023-04-18T08:30:22.954Z,174.28
2023-04-18T08:31:23.027Z,169.35
2023-04-18T08:32:23.976Z,166.62
2023-04-18T08:33:23.917Z,163.41
2023-04-18T08:34:23.907Z,165.93
2023-04-18T08:35:22.935Z,164.08
2023-04-18T08:36:23.980Z,161.81
2023-04-18T08:37:22.958Z,159.99
2023-04-18T08:38:23.897Z,159.85
2023-04-18T08:39:25.322Z,157.82
2023-04-18T08:40:23.944Z,153.81
2023-04-18T08:41:23.214Z,158.38
2023-04-18T08:42:22.977Z,155.33
2023-04-18T08:43:23.960Z,146.93
2023-04-18T08:44:22.960Z,151.86
2023-04-18T08:45:22.954Z,148.00
2023-04-18T08:46:24.002Z,137.63
2023-04-18T08:47:24.023Z,124.24
2023-04-18T08:48:24.009Z,103.68
2023-04-18T08:49:24.043Z,76.07
2023-04-18T08:50:24.110Z,76.82
2023-04-18T08:51:24.078Z,94.33
2023-04-18T08:52:24.080Z,113.95
2023-04-18T08:53:24.070Z,109.07
2023-04-18T08:54:25.594Z,108.65
2023-04-18T08:55:23.104Z,108.67
2023-04-18T08:56:24.208Z,98.45
2023-04-18T08:57:24.108Z,110.03
2023-04-18T08:58:23.088Z,117.67
2023-04-18T08:59:23.089Z,124.49
2023-04-18T09:00:23.082Z,125.42
2023-04-18T09:01:23.137Z,125.00
2023-04-18T09:02:24.201Z,125.69
2023-04-18T09:03:24.169Z,126.41
2023-04-18T09:04:24.097Z,125.74
2023-04-18T09:05:24.050Z,129.54
2023-04-18T09:06:23.051Z,131.24
2023-04-18T09:07:24.060Z,134.75
2023-04-18T09:08:23.048Z,136.52
2023-04-18T09:09:24.015Z,141.39
2023-04-18T09:10:24.054Z,142.90
2023-04-18T09:11:23.006Z,148.66
2023-04-18T09:12:24.001Z,150.33
2023-04-18T09:13:24.607Z,152.85
2023-04-18T09:14:23.012Z,154.71
2023-04-18T09:15:22.988Z,157.73
2023-04-18T09:16:23.983Z,162.03
2023-04-18T09:17:23.988Z,163.64
2023-04-18T09:18:23.994Z,155.23
2023-04-18T09:19:24.005Z,156.96
2023-04-18T09:20:22.964Z,158.58
2023-04-18T09:21:23.984Z,154.13
2023-04-18T09:22:23.948Z,158.36
2023-04-18T09:23:23.921Z,152.95
2023-04-18T09:24:22.926Z,154.16
2023-04-18T09:25:22.934Z,154.77
2023-04-18T09:26:24.001Z,153.52
2023-04-18T09:27:24.041Z,152.83
2023-04-18T09:28:24.099Z,154.84
2023-04-18T09:29:23.121Z,151.40
2023-04-18T09:30:23.177Z,151.17
2023-04-18T09:31:23.254Z,146.98
2023-04-18T09:32:24.290Z,148.25
2023-04-18T09:33:23.339Z,150.37
2023-04-18T09:34:23.412Z,151.21
2023-04-18T09:35:24.522Z,152.25
2023-04-18T09:36:24.591Z,151.50
2023-04-18T09:37:24.585Z,144.79
2023-04-18T09:38:24.647Z,151.06
2023-04-18T09:39:24.734Z,147.02
2023-04-18T09:40:24.806Z,149.02
2023-04-18T09:41:23.859Z,151.49
2023-04-18T09:42:26.201Z,151.09
2023-04-18T09:43:23.882Z,151.30
2023-04-18T09:44:23.885Z,151.70
2023-04-18T09:45:23.865Z,153.06
2023-04-18T09:46:25.294Z,153.93
2023-04-18T09:47:24.901Z,153.03
2023-04-18T09:48:24.859Z,124.81
2023-04-18T09:49:23.848Z,141.52
2023-04-18T09:50:23.874Z,152.22
2023-04-18T09:51:24.868Z,150.85
2023-04-18T09:52:25.230Z,151.00
2023-04-18T09:53:24.797Z,151.75
2023-04-18T09:54:24.790Z,155.63
2023-04-18T09:55:24.795Z,154.16
2023-04-18T09:56:23.774Z,152.93
2023-04-18T09:57:23.785Z,154.65
2023-04-18T09:58:24.777Z,156.82
2023-04-18T09:59:23.759Z,154.53
2023-04-18T10:00:23.799Z,155.99
2023-04-18T10:01:23.782Z,152.99
2023-04-18T10:02:24.816Z,155.24
2023-04-18T10:03:23.823Z,152.91
2023-04-18T10:04:24.794Z,152.00
2023-04-18T10:05:24.745Z,149.93
2023-04-18T10:06:24.709Z,148.12
2023-04-18T10:07:24.737Z,146.62
2023-04-18T10:08:24.717Z,147.50
2023-04-18T10:09:23.682Z,147.98
2023-04-18T10:10:23.715Z,150.11
2023-04-18T10:11:24.688Z,146.19
2023-04-18T10:12:24.673Z,150.23
2023-04-18T10:13:23.667Z,147.42
2023-04-18T10:14:23.653Z,146.54
2023-04-18T10:15:24.654Z,145.86
2023-04-18T10:16:23.708Z,144.52
2023-04-18T10:17:23.685Z,144.52
2023-04-18T10:18:23.690Z,142.31
2023-04-18T10:19:24.692Z,145.43
2023-04-18T10:20:23.689Z,143.59
2023-04-18T10:21:24.619Z,143.18
2023-04-18T10:22:24.632Z,146.42
2023-04-18T10:23:23.664Z,148.21
2023-04-18T10:24:24.581Z,147.59
2023-04-18T10:25:23.586Z,151.02
2023-04-18T10:26:24.597Z,146.16
2023-04-18T10:27:23.569Z,148.87
2023-04-18T10:28:24.246Z,146.49
2023-04-18T10:29:23.553Z,150.08
2023-04-18T10:30:24.538Z,149.33
2023-04-18T10:31:24.608Z,152.02
2023-04-18T10:32:24.563Z,151.66
2023-04-18T10:33:29.928Z,145.66
2023-04-18T10:34:24.519Z,146.05
2023-04-18T10:35:24.506Z,146.60
2023-04-18T10:36:24.641Z,148.26
2023-04-18T10:37:24.501Z,148.54
2023-04-18T10:38:24.501Z,149.95
2023-04-18T10:39:24.515Z,145.53
2023-04-18T10:40:23.479Z,150.50
2023-04-18T10:41:24.500Z,149.18
2023-04-18T10:42:23.736Z,150.28
2023-04-18T10:43:23.456Z,147.90
2023-04-18T10:44:24.499Z,144.96
2023-04-18T10:45:23.461Z,149.34
2023-04-18T10:46:31.592Z,144.59
2023-04-18T10:47:24.964Z,144.95
2023-04-18T10:48:24.500Z,144.66
2023-04-18T10:49:26.793Z,145.92
2023-04-18T10:50:23.405Z,144.85
2023-04-18T10:51:24.394Z,145.19
2023-04-18T10:52:23.397Z,145.22
2023-04-18T10:53:24.404Z,146.74
2023-04-18T10:54:24.372Z,145.15
2023-04-18T10:55:24.391Z,147.11
2023-04-18T10:56:24.377Z,145.73
2023-04-18T10:57:23.347Z,144.99
2023-04-18T10:58:24.357Z,143.05
2023-04-18T10:59:24.331Z,144.63
2023-04-18T11:00:23.326Z,144.27
2023-04-18T11:01:24.365Z,146.11
2023-04-18T11:02:23.430Z,146.59
2023-04-18T11:03:24.362Z,146.60
2023-04-18T11:04:23.321Z,147.49
2023-04-18T11:05:23.280Z,146.43
2023-04-18T11:06:24.281Z,144.63
2023-04-18T11:07:24.279Z,149.56
2023-04-18T11:08:24.277Z,148.35
2023-04-18T11:09:24.260Z,148.39
2023-04-18T11:10:23.251Z,145.85
2023-04-18T11:11:24.280Z,149.33
2023-04-18T11:12:23.255Z,149.45
2023-04-18T11:13:23.234Z,145.90
2023-04-18T11:14:24.220Z,148.09
2023-04-18T11:15:24.226Z,146.32
2023-04-18T11:16:24.241Z,146.66
2023-04-18T11:17:24.351Z,148.14
2023-04-18T11:18:24.199Z,143.89
2023-04-18T11:19:23.185Z,145.87
2023-04-18T11:20:24.185Z,146.06
2023-04-18T11:21:24.180Z,143.71
2023-04-18T11:22:24.163Z,145.08
2023-04-18T11:23:24.213Z,145.99
2023-04-18T11:24:24.405Z,147.54
2023-04-18T11:25:24.226Z,147.14
2023-04-18T11:26:23.208Z,146.62
2023-04-18T11:27:23.162Z,150.60
2023-04-18T11:28:23.125Z,150.57
2023-04-18T11:29:23.121Z,153.40
2023-04-18T11:30:23.123Z,152.79
2023-04-18T11:31:23.133Z,153.89
2023-04-18T11:32:23.277Z,153.09
2023-04-18T11:33:24.167Z,150.88
2023-04-18T11:34:23.086Z,152.87
2023-04-18T11:35:24.079Z,153.23
2023-04-18T11:36:23.092Z,152.53
2023-04-18T11:37:24.268Z,153.79
2023-04-18T11:38:24.279Z,156.61
2023-04-18T11:39:23.059Z,157.27
2023-04-18T11:40:24.043Z,157.27
2023-04-18T11:41:24.038Z,154.05
2023-04-18T11:42:24.048Z,157.56
2023-04-18T11:43:24.081Z,157.00
2023-04-18T11:44:24.015Z,153.06
2023-04-18T11:45:24.012Z,152.23
2023-04-18T11:46:24.072Z,153.67
2023-04-18T11:47:23.038Z,152.59
2023-04-18T11:48:22.986Z,152.69
2023-04-18T11:49:22.969Z,153.74
2023-04-18T11:50:22.973Z,151.54
2023-04-18T11:51:23.952Z,154.40
2023-04-18T11:52:22.954Z,152.70
2023-04-18T11:53:22.952Z,148.28
2023-04-18T11:54:23.938Z,151.38
2023-04-18T11:55:22.937Z,150.81
2023-04-18T11:56:23.920Z,150.58
2023-04-18T11:57:23.908Z,151.43
2023-04-18T11:58:22.904Z,153.48
2023-04-18T11:59:22.915Z,153.86
2023-04-18T12:00:22.887Z,153.19
2023-04-18T12:01:22.918Z,152.26
2023-04-18T12:02:23.981Z,151.30
2023-04-18T12:03:24.004Z,147.79
2023-04-18T12:04:23.089Z,151.30
2023-04-18T12:05:23.120Z,149.37
2023-04-18T12:06:24.151Z,157.92
2023-04-18T12:07:23.831Z,174.40
2023-04-18T12:08:23.849Z,182.70
2023-04-18T12:09:23.845Z,184.11
2023-04-18T12:10:23.819Z,191.35
2023-04-18T12:11:22.804Z,197.81
2023-04-18T12:12:23.809Z,200.09
2023-04-18T12:13:23.789Z,201.51
2023-04-18T12:14:22.779Z,209.42
2023-04-18T12:15:22.907Z,205.19
2023-04-18T12:16:22.804Z,204.90
2023-04-18T12:17:23.823Z,204.63
2023-04-18T12:18:23.748Z,206.90
2023-04-18T12:19:23.740Z,204.69
2023-04-18T12:20:23.736Z,204.40
2023-04-18T12:21:22.732Z,206.73
2023-04-18T12:22:23.728Z,208.17
2023-04-18T12:23:22.741Z,208.02
2023-04-18T12:24:23.726Z,206.29
2023-04-18T12:25:27.100Z,206.01
2023-04-18T12:26:22.730Z,206.27
2023-04-18T12:27:23.679Z,206.48
2023-04-18T12:28:22.681Z,206.03
2023-04-18T12:29:23.692Z,206.95
2023-04-18T12:30:22.661Z,208.24
2023-04-18T12:31:23.746Z,205.98
2023-04-18T12:32:23.662Z,203.40
2023-04-18T12:33:23.648Z,202.83
2023-04-18T12:34:22.680Z,199.40
2023-04-18T12:35:22.633Z,201.42
2023-04-18T12:36:22.612Z,197.84
2023-04-18T12:37:23.621Z,200.78
2023-04-18T12:38:22.615Z,199.56
2023-04-18T12:39:22.606Z,201.32
2023-04-18T12:40:22.624Z,197.79
2023-04-18T12:41:22.590Z,197.41
2023-04-18T12:42:22.574Z,196.93
2023-04-18T12:43:23.570Z,195.31
2023-04-18T12:44:22.568Z,193.83
2023-04-18T12:45:23.557Z,195.13
2023-04-18T12:46:22.575Z,196.07
2023-04-18T12:47:22.632Z,192.28
2023-04-18T12:48:22.539Z,192.68
2023-04-18T12:49:23.529Z,191.69
2023-04-18T12:50:22.568Z,194.88
2023-04-18T12:51:23.515Z,193.22
2023-04-18T12:52:22.503Z,192.32
2023-04-18T12:53:23.527Z,190.60
2023-04-18T12:54:23.499Z,191.04
2023-04-18T12:55:22.498Z,191.67
2023-04-18T12:56:23.485Z,191.16
2023-04-18T12:57:22.475Z,189.65
2023-04-18T12:58:22.467Z,190.47
2023-04-18T12:59:23.466Z,185.81
2023-04-18T13:00:23.551Z,188.33
2023-04-18T13:01:22.491Z,186.54
2023-04-18T13:02:22.541Z,186.36
2023-04-18T13:03:23.731Z,185.78
2023-04-18T13:04:23.628Z,186.90
2023-04-18T13:05:22.426Z,187.94
2023-04-18T13:06:23.413Z,183.81
2023-04-18T13:07:23.439Z,183.68
2023-04-18T13:08:23.401Z,183.65
2023-04-18T13:09:23.409Z,183.23
2023-04-18T13:10:23.407Z,182.54
2023-04-18T13:11:23.368Z,184.72
2023-04-18T13:12:23.370Z,184.59
2023-04-18T13:13:22.387Z,179.88
2023-04-18T13:14:23.349Z,183.39
2023-04-18T13:15:22.381Z,184.18
2023-04-18T13:16:23.453Z,181.05
2023-04-18T13:17:22.369Z,181.71
2023-04-18T13:18:22.373Z,180.12
2023-04-18T13:19:23.372Z,184.61
2023-04-18T13:20:23.323Z,180.52
2023-04-18T13:21:23.321Z,180.04
2023-04-18T13:22:23.310Z,180.26
2023-04-18T13:23:23.323Z,180.71
2023-04-18T13:24:22.303Z,181.53
2023-04-18T13:25:23.282Z,178.25
2023-04-18T13:26:23.283Z,178.48
2023-04-18T13:27:22.273Z,180.26
2023-04-18T13:28:22.277Z,180.31
2023-04-18T13:29:22.270Z,179.39
2023-04-18T13:30:23.271Z,185.20
2023-04-18T13:31:23.257Z,182.69
2023-04-18T13:32:23.253Z,183.47
2023-04-18T13:33:23.247Z,182.97
2023-04-18T13:34:23.287Z,181.06
2023-04-18T13:35:22.310Z,177.62
2023-04-18T13:36:23.292Z,172.94
2023-04-18T13:37:22.338Z,177.72
2023-04-18T13:38:22.357Z,175.90
2023-04-18T13:39:22.405Z,173.73
2023-04-18T13:40:23.433Z,175.13
2023-04-18T13:41:22.418Z,173.24
2023-04-18T13:42:22.413Z,175.56
2023-04-18T13:43:22.446Z,176.20
2023-04-18T13:44:22.429Z,175.07
2023-04-18T13:45:23.443Z,172.92
2023-04-18T13:46:23.456Z,171.55
2023-04-18T13:47:22.452Z,174.76
2023-04-18T13:48:23.454Z,173.21
2023-04-18T13:49:23.482Z,173.75
2023-04-18T13:50:22.467Z,173.45
2023-04-18T13:51:23.482Z,173.01
2023-04-18T13:52:22.480Z,174.89
2023-04-18T13:53:23.470Z,173.63
2023-04-18T13:54:23.438Z,174.45
2023-04-18T13:55:23.447Z,173.22
2023-04-18T13:56:23.452Z,178.06
2023-04-18T13:57:22.462Z,173.36
2023-04-18T13:58:22.483Z,171.42
2023-04-18T13:59:22.511Z,171.21
2023-04-18T14:00:23.534Z,169.97
2023-04-18T14:01:23.704Z,169.22
2023-04-18T14:02:23.673Z,169.97
2023-04-18T14:03:22.924Z,168.53
2023-04-18T14:04:23.827Z,171.21
2023-04-18T14:05:23.676Z,171.73
2023-04-18T14:06:22.721Z,167.01
2023-04-18T14:07:23.837Z,168.60
2023-04-18T14:08:23.843Z,169.36
2023-04-18T14:09:23.912Z,163.30
2023-04-18T14:10:22.956Z,165.76
2023-04-18T14:11:22.978Z,165.06
2023-04-18T14:12:24.034Z,165.70
2023-04-18T14:13:23.078Z,165.90
2023-04-18T14:14:24.148Z,170.51
2023-04-18T14:15:23.236Z,168.59
2023-04-18T14:16:24.293Z,168.23
2023-04-18T14:17:24.320Z,165.46
2023-04-18T14:18:23.386Z,166.06
2023-04-18T14:19:23.412Z,163.58
2023-04-18T14:20:23.435Z,166.96
2023-04-18T14:21:23.450Z,168.91
2023-04-18T14:22:23.511Z,168.96
2023-04-18T14:23:23.519Z,167.99
2023-04-18T14:24:23.525Z,168.83
2023-04-18T14:25:24.506Z,165.96
2023-04-18T14:26:23.495Z,168.15
2023-04-18T14:27:24.487Z,166.73
2023-04-18T14:28:24.480Z,165.13
2023-04-18T14:29:24.476Z,167.89
2023-04-18T14:30:23.471Z,165.13
2023-04-18T14:31:24.509Z,166.35
2023-04-18T14:32:23.496Z,162.35
2023-04-18T14:33:24.473Z,166.21
2023-04-18T14:34:23.488Z,163.41
2023-04-18T14:35:23.459Z,161.86
2023-04-18T14:36:23.453Z,162.51
2023-04-18T14:37:24.446Z,162.29
2023-04-18T14:38:23.447Z,163.39
2023-04-18T14:39:24.472Z,163.38
2023-04-18T14:40:24.465Z,162.40
2023-04-18T14:41:24.463Z,162.30
2023-04-18T14:42:23.445Z,164.91
2023-04-18T14:43:23.450Z,163.28
2023-04-18T14:44:23.442Z,163.55
2023-04-18T14:45:23.482Z,161.06
2023-04-18T14:46:23.462Z,161.34
2023-04-18T14:47:24.373Z,159.89
2023-04-18T14:48:23.504Z,163.15
2023-04-18T14:49:24.455Z,161.05
2023-04-18T14:50:23.505Z,163.53
2023-04-18T14:51:23.477Z,162.01
2023-04-18T14:52:24.468Z,161.10
2023-04-18T14:53:24.494Z,161.35
2023-04-18T14:54:23.493Z,159.04
2023-04-18T14:55:23.539Z,158.89
2023-04-18T14:56:23.533Z,155.41
2023-04-18T14:57:23.570Z,159.85
2023-04-18T14:58:24.520Z,160.35
2023-04-18T14:59:24.561Z,159.35
2023-04-18T15:00:24.557Z,160.78
2023-04-18T15:01:23.602Z,158.56
2023-04-18T15:02:23.647Z,156.27
2023-04-18T15:03:24.849Z,152.12
2023-04-18T15:04:24.893Z,161.04
2023-04-18T15:05:23.625Z,158.67
2023-04-18T15:06:24.649Z,158.15
2023-04-18T15:07:24.671Z,156.62
2023-04-18T15:08:24.690Z,153.34
2023-04-18T15:09:24.697Z,151.71
2023-04-18T15:10:24.724Z,154.84
2023-04-18T15:11:23.761Z,154.38
2023-04-18T15:12:24.768Z,154.26
2023-04-18T15:13:24.767Z,153.48
2023-04-18T15:14:24.816Z,152.94
2023-04-18T15:15:23.791Z,149.32
2023-04-18T15:16:24.943Z,153.34
2023-04-18T15:17:24.850Z,149.35
2023-04-18T15:18:24.855Z,150.76
2023-04-18T15:19:24.869Z,152.55
2023-04-18T15:20:24.196Z,154.05
2023-04-18T15:21:23.904Z,153.11
2023-04-18T15:22:23.928Z,155.74
2023-04-18T15:23:23.956Z,153.18
2023-04-18T15:24:25.007Z,153.62
2023-04-18T15:25:25.038Z,154.29
2023-04-18T15:26:24.069Z,151.83
2023-04-18T15:27:25.108Z,150.77
2023-04-18T15:28:24.164Z,151.87
2023-04-18T15:29:25.162Z,152.10
